sensor_id;sensor_type;location;lat;lon;timestamp;pressure;altitude;pressure_sealevel;temperature;humidity
14117;BME280;7137;51.436;6.544;2023-02-17T00:02:33;101608.94;;;11.06;100.00
14117;BME280;7137;51.436;6.544;2023-02-17T00:05:38;101597.38;;;11.19;99.50
14117;BME280;7137;51.436;6.544;2023-02-17T00:08:39;101600.25;;;11.06;100.00
14117;BME280;7137;51.436;6.544;2023-02-17T00:11:41;101602.97;;;11.01;100.00
14117;BME280;7137;51.436;6.544;2023-02-17T00:14:43;101593.38;;;11.02;100.00
14117;BME280;7137;51.436;6.544;2023-02-17T00:17:45;101599.59;;;10.94;100.00
14117;BME280;7137;51.436;6.544;2023-02-17T00:20:48;101595.19;;;10.98;100.00
14117;BME280;7137;51.436;6.544;2023-02-17T00:23:50;101591.41;;;11.11;100.00
14117;BME280;7137;51.436;6.544;2023-02-17T00:26:52;101585.31;;;11.12;100.00
14117;BME280;7137;51.436;6.544;2023-02-17T00:29:53;101602.22;;;10.93;100.00
14117;BME280;7137;51.436;6.544;2023-02-17T00:32:55;101594.28;;;10.99;100.00
14117;BME280;7137;51.436;6.544;2023-02-17T00:35:58;101586.34;;;11.04;100.00
14117;BME280;7137;51.436;6.544;2023-02-17T00:39:00;101586.44;;;10.97;100.00
14117;BME280;7137;51.436;6.544;2023-02-17T00:42:01;101594.31;;;10.96;100.00
14117;BME280;7137;51.436;6.544;2023-02-17T00:45:04;101589.09;;;10.96;100.00
14117;BME280;7137;51.436;6.544;2023-02-17T00:48:05;101585.44;;;11.05;100.00
14117;BME280;7137;51.436;6.544;2023-02-17T00:51:08;101582.66;;;11.14;100.00
14117;BME280;7137;51.436;6.544;2023-02-17T00:54:10;101582.56;;;11.18;100.00
14117;BME280;7137;51.436;6.544;2023-02-17T00:57:11;101581.50;;;11.28;100.00
14117;BME280;7137;51.436;6.544;2023-02-17T01:00:14;101577.41;;;11.15;100.00
14117;BME280;7137;51.436;6.544;2023-02-17T01:03:16;101572.34;;;11.06;100.00
14117;BME280;7137;51.436;6.544;2023-02-17T01:06:23;101568.19;;;10.96;100.00
14117;BME280;7137;51.436;6.544;2023-02-17T01:09:26;101563.16;;;10.87;100.00
14117;BME280;7137;51.436;6.544;2023-02-17T01:12:29;101561.28;;;10.92;100.00
14117;BME280;7137;51.436;6.544;2023-02-17T01:15:31;101562.03;;;11.00;100.00
14117;BME280;7137;51.436;6.544;2023-02-17T01:18:33;101566.63;;;10.87;100.00
14117;BME280;7137;51.436;6.544;2023-02-17T01:21:36;101561.53;;;10.80;100.00
14117;BME280;7137;51.436;6.544;2023-02-17T01:24:38;101561.84;;;11.08;100.00
14117;BME280;7137;51.436;6.544;2023-02-17T01:27:39;101561.81;;;11.09;100.00
14117;BME280;7137;51.436;6.544;2023-02-17T01:30:41;101557.34;;;11.16;100.00
14117;BME280;7137;51.436;6.544;2023-02-17T01:33:43;101556.44;;;11.17;100.00
14117;BME280;7137;51.436;6.544;2023-02-17T01:36:46;101547.16;;;11.02;100.00
14117;BME280;7137;51.436;6.544;2023-02-17T01:39:47;101543.47;;;11.12;100.00
14117;BME280;7137;51.436;6.544;2023-02-17T01:42:49;101541.66;;;11.16;100.00
14117;BME280;7137;51.436;6.544;2023-02-17T01:45:52;101546.63;;;11.28;100.00
14117;BME280;7137;51.436;6.544;2023-02-17T01:48:54;101541.47;;;11.23;100.00
14117;BME280;7137;51.436;6.544;2023-02-17T01:52:03;101536.50;;;11.11;100.00
14117;BME280;7137;51.436;6.544;2023-02-17T01:55:11;101522.38;;;11.20;100.00
14117;BME280;7137;51.436;6.544;2023-02-17T01:58:14;101529.50;;;11.12;100.00
14117;BME280;7137;51.436;6.544;2023-02-17T02:01:18;101523.03;;;11.31;100.00
14117;BME280;7137;51.436;6.544;2023-02-17T02:04:21;101510.59;;;11.00;100.00
14117;BME280;7137;51.436;6.544;2023-02-17T02:07:29;101518.69;;;11.30;100.00
14117;BME280;7137;51.436;6.544;2023-02-17T02:10:30;101522.28;;;11.24;100.00
14117;BME280;7137;51.436;6.544;2023-02-17T02:13:32;101517.91;;;11.26;100.00
14117;BME280;7137;51.436;6.544;2023-02-17T02:16:38;101524.78;;;11.30;100.00
14117;BME280;7137;51.436;6.544;2023-02-17T02:20:06;101527.88;;;11.48;100.00
14117;BME280;7137;51.436;6.544;2023-02-17T02:23:42;101520.25;;;11.37;100.00
14117;BME280;7137;51.436;6.544;2023-02-17T02:30:52;101510.06;;;11.25;100.00
14117;BME280;7137;51.436;6.544;2023-02-17T02:34:03;101515.25;;;11.28;100.00
14117;BME280;7137;51.436;6.544;2023-02-17T02:37:09;101503.19;;;11.21;100.00
14117;BME280;7137;51.436;6.544;2023-02-17T02:40:14;101497.03;;;11.23;100.00
14117;BME280;7137;51.436;6.544;2023-02-17T02:43:17;101498.81;;;11.21;100.00
14117;BME280;7137;51.436;6.544;2023-02-17T02:46:19;101482.22;;;11.22;100.00
14117;BME280;7137;51.436;6.544;2023-02-17T02:49:22;101486.56;;;11.23;100.00
14117;BME280;7137;51.436;6.544;2023-02-17T02:52:28;101478.91;;;11.16;100.00
14117;BME280;7137;51.436;6.544;2023-02-17T02:55:49;101481.97;;;11.35;100.00
14117;BME280;7137;51.436;6.544;2023-02-17T02:58:59;101470.94;;;11.59;98.60
14117;BME280;7137;51.436;6.544;2023-02-17T03:02:07;101474.47;;;11.58;99.28
14117;BME280;7137;51.436;6.544;2023-02-17T03:05:19;101475.75;;;11.39;99.91
14117;BME280;7137;51.436;6.544;2023-02-17T03:08:30;101463.13;;;11.19;100.00
14117;BME280;7137;51.436;6.544;2023-02-17T03:11:33;101464.75;;;11.24;100.00
14117;BME280;7137;51.436;6.544;2023-02-17T03:14:36;101472.63;;;11.23;100.00
14117;BME280;7137;51.436;6.544;2023-02-17T03:17:38;101460.22;;;11.33;100.00
14117;BME280;7137;51.436;6.544;2023-02-17T03:20:44;101459.47;;;11.27;100.00
14117;BME280;7137;51.436;6.544;2023-02-17T03:23:47;101456.56;;;11.40;99.93
14117;BME280;7137;51.436;6.544;2023-02-17T03:26:49;101461.78;;;11.40;99.77
14117;BME280;7137;51.436;6.544;2023-02-17T03:29:51;101457.97;;;11.54;98.73
14117;BME280;7137;51.436;6.544;2023-02-17T03:32:53;101454.91;;;11.36;100.00
14117;BME280;7137;51.436;6.544;2023-02-17T03:35:56;101440.03;;;11.38;99.86
14117;BME280;7137;51.436;6.544;2023-02-17T03:38:57;101451.81;;;11.57;98.57
14117;BME280;7137;51.436;6.544;2023-02-17T03:41:59;101455.38;;;11.53;97.92
14117;BME280;7137;51.436;6.544;2023-02-17T03:45:00;101455.28;;;11.57;98.57
14117;BME280;7137;51.436;6.544;2023-02-17T03:48:02;101459.88;;;11.48;99.13
14117;BME280;7137;51.436;6.544;2023-02-17T03:51:13;101457.44;;;11.39;99.00
14117;BME280;7137;51.436;6.544;2023-02-17T03:54:14;101462.94;;;11.65;97.71
14117;BME280;7137;51.436;6.544;2023-02-17T03:57:16;101473.41;;;11.65;97.13
14117;BME280;7137;51.436;6.544;2023-02-17T04:00:18;101479.00;;;11.50;97.85
14117;BME280;7137;51.436;6.544;2023-02-17T04:03:20;101476.97;;;11.63;97.85
14117;BME280;7137;51.436;6.544;2023-02-17T04:06:23;101485.66;;;11.63;97.63
14117;BME280;7137;51.436;6.544;2023-02-17T04:09:25;101484.03;;;11.59;98.01
14117;BME280;7137;51.436;6.544;2023-02-17T04:12:27;101474.59;;;11.52;96.93
14117;BME280;7137;51.436;6.544;2023-02-17T04:15:28;101464.97;;;11.52;97.29
14117;BME280;7137;51.436;6.544;2023-02-17T04:18:30;101466.88;;;11.46;98.26
14117;BME280;7137;51.436;6.544;2023-02-17T04:21:33;101464.56;;;11.34;98.72
14117;BME280;7137;51.436;6.544;2023-02-17T04:24:35;101474.78;;;11.44;97.85
14117;BME280;7137;51.436;6.544;2023-02-17T04:27:37;101467.09;;;11.37;98.68
14117;BME280;7137;51.436;6.544;2023-02-17T04:30:41;101469.06;;;11.64;95.76
14117;BME280;7137;51.436;6.544;2023-02-17T04:33:42;101469.16;;;11.61;97.15
14117;BME280;7137;51.436;6.544;2023-02-17T04:36:45;101464.09;;;11.53;96.58
14117;BME280;7137;51.436;6.544;2023-02-17T04:39:47;101454.47;;;11.54;96.55
14117;BME280;7137;51.436;6.544;2023-02-17T04:42:48;101452.47;;;11.28;97.32
14117;BME280;7137;51.436;6.544;2023-02-17T04:45:50;101477.25;;;11.50;96.42
14117;BME280;7137;51.436;6.544;2023-02-17T04:48:52;101468.19;;;11.28;97.27
14117;BME280;7137;51.436;6.544;2023-02-17T04:51:55;101478.69;;;11.25;97.52
14117;BME280;7137;51.436;6.544;2023-02-17T04:54:57;101476.63;;;11.41;96.87
14117;BME280;7137;51.436;6.544;2023-02-17T04:57:59;101479.47;;;11.30;96.25
14117;BME280;7137;51.436;6.544;2023-02-17T05:01:00;101472.53;;;11.27;96.60
14117;BME280;7137;51.436;6.544;2023-02-17T05:04:02;101467.91;;;11.40;96.07
14117;BME280;7137;51.436;6.544;2023-02-17T05:07:05;101450.34;;;11.45;95.93
14117;BME280;7137;51.436;6.544;2023-02-17T05:10:08;101449.59;;;11.39;95.88
14117;BME280;7137;51.436;6.544;2023-02-17T05:13:10;101454.25;;;11.27;95.67
14117;BME280;7137;51.436;6.544;2023-02-17T05:16:11;101461.22;;;11.25;96.22
14117;BME280;7137;51.436;6.544;2023-02-17T05:19:13;101467.25;;;11.30;95.51
14117;BME280;7137;51.436;6.544;2023-02-17T05:22:16;101450.84;;;11.22;95.75
14117;BME280;7137;51.436;6.544;2023-02-17T05:25:17;101448.81;;;11.35;94.58
14117;BME280;7137;51.436;6.544;2023-02-17T05:28:19;101440.78;;;11.44;94.20
14117;BME280;7137;51.436;6.544;2023-02-17T05:31:20;101443.06;;;11.19;95.28
14117;BME280;7137;51.436;6.544;2023-02-17T05:34:22;101433.41;;;11.23;95.00
14117;BME280;7137;51.436;6.544;2023-02-17T05:37:25;101434.13;;;11.29;94.80
14117;BME280;7137;51.436;6.544;2023-02-17T05:40:27;101439.50;;;11.23;95.80
14117;BME280;7137;51.436;6.544;2023-02-17T05:43:28;101446.41;;;11.27;95.81
14117;BME280;7137;51.436;6.544;2023-02-17T05:46:30;101446.31;;;11.30;95.63
14117;BME280;7137;51.436;6.544;2023-02-17T05:49:31;101450.63;;;11.33;94.66
14117;BME280;7137;51.436;6.544;2023-02-17T05:52:34;101449.47;;;11.45;94.80
14117;BME280;7137;51.436;6.544;2023-02-17T05:55:36;101453.22;;;11.33;95.42
14117;BME280;7137;51.436;6.544;2023-02-17T05:58:37;101431.69;;;11.22;96.43
14117;BME280;7137;51.436;6.544;2023-02-17T06:01:39;101424.00;;;11.16;96.93
14117;BME280;7137;51.436;6.544;2023-02-17T06:04:40;101433.47;;;11.20;96.72
14117;BME280;7137;51.436;6.544;2023-02-17T06:07:44;101432.56;;;11.21;97.09
14117;BME280;7137;51.436;6.544;2023-02-17T06:10:45;101441.94;;;11.31;96.45
14117;BME280;7137;51.436;6.544;2023-02-17T06:13:47;101419.56;;;11.18;98.13
14117;BME280;7137;51.436;6.544;2023-02-17T06:16:48;101437.84;;;11.19;97.56
14117;BME280;7137;51.436;6.544;2023-02-17T06:19:50;101437.66;;;11.28;97.34
14117;BME280;7137;51.436;6.544;2023-02-17T06:22:53;101438.91;;;11.12;98.59
14117;BME280;7137;51.436;6.544;2023-02-17T06:25:54;101447.28;;;11.25;97.61
14117;BME280;7137;51.436;6.544;2023-02-17T06:28:56;101459.16;;;11.41;97.44
14117;BME280;7137;51.436;6.544;2023-02-17T06:31:57;101470.53;;;11.40;97.94
14117;BME280;7137;51.436;6.544;2023-02-17T06:34:59;101462.59;;;11.43;96.98
14117;BME280;7137;51.436;6.544;2023-02-17T06:38:02;101455.03;;;11.31;98.65
14117;BME280;7137;51.436;6.544;2023-02-17T06:41:04;101447.28;;;11.26;99.36
14117;BME280;7137;51.436;6.544;2023-02-17T06:44:05;101436.81;;;11.26;99.56
14117;BME280;7137;51.436;6.544;2023-02-17T06:47:07;101444.78;;;11.20;100.00
14117;BME280;7137;51.436;6.544;2023-02-17T06:50:10;101435.47;;;11.09;100.00
14117;BME280;7137;51.436;6.544;2023-02-17T06:53:13;101425.97;;;11.05;100.00
14117;BME280;7137;51.436;6.544;2023-02-17T06:56:15;101438.97;;;11.08;100.00
14117;BME280;7137;51.436;6.544;2023-02-17T06:59:16;101431.25;;;11.03;100.00
14117;BME280;7137;51.436;6.544;2023-02-17T07:02:18;101424.28;;;11.02;100.00
14117;BME280;7137;51.436;6.544;2023-02-17T07:05:19;101437.88;;;11.18;100.00
14117;BME280;7137;51.436;6.544;2023-02-17T07:08:22;101439.88;;;11.07;100.00
14117;BME280;7137;51.436;6.544;2023-02-17T07:11:24;101438.84;;;11.14;100.00
14117;BME280;7137;51.436;6.544;2023-02-17T07:14:31;101445.66;;;11.21;100.00
14117;BME280;7137;51.436;6.544;2023-02-17T07:17:33;101460.00;;;11.03;100.00
14117;BME280;7137;51.436;6.544;2023-02-17T07:20:35;101459.78;;;11.14;100.00
14117;BME280;7137;51.436;6.544;2023-02-17T07:23:38;101446.09;;;11.01;100.00
14117;BME280;7137;51.436;6.544;2023-02-17T07:26:40;101449.28;;;11.15;100.00
14117;BME280;7137;51.436;6.544;2023-02-17T07:29:41;101446.50;;;11.21;100.00
14117;BME280;7137;51.436;6.544;2023-02-17T07:32:43;101447.59;;;11.50;100.00
14117;BME280;7137;51.436;6.544;2023-02-17T07:35:45;101443.97;;;11.18;100.00
14117;BME280;7137;51.436;6.544;2023-02-17T07:38:48;101448.16;;;11.25;100.00
14117;BME280;7137;51.436;6.544;2023-02-17T07:41:50;101454.84;;;11.39;100.00
14117;BME280;7137;51.436;6.544;2023-02-17T07:44:52;101454.78;;;11.42;100.00
14117;BME280;7137;51.436;6.544;2023-02-17T07:47:54;101450.66;;;11.32;100.00
14117;BME280;7137;51.436;6.544;2023-02-17T07:50:56;101445.53;;;11.25;100.00
14117;BME280;7137;51.436;6.544;2023-02-17T07:53:59;101432.22;;;11.36;100.00
14117;BME280;7137;51.436;6.544;2023-02-17T07:57:01;101439.09;;;11.42;100.00
14117;BME280;7137;51.436;6.544;2023-02-17T08:00:04;101436.56;;;11.37;100.00
14117;BME280;7137;51.436;6.544;2023-02-17T08:03:06;101454.59;;;11.49;100.00
14117;BME280;7137;51.436;6.544;2023-02-17T08:06:11;101451.16;;;11.47;100.00
14117;BME280;7137;51.436;6.544;2023-02-17T08:09:14;101441.22;;;11.62;100.00
14117;BME280;7137;51.436;6.544;2023-02-17T08:12:33;101442.25;;;11.56;100.00
14117;BME280;7137;51.436;6.544;2023-02-17T08:16:04;101437.75;;;11.61;100.00
14117;BME280;7137;51.436;6.544;2023-02-17T08:19:06;101434.97;;;11.69;100.00
14117;BME280;7137;51.436;6.544;2023-02-17T08:22:08;101433.84;;;11.79;99.56
14117;BME280;7137;51.436;6.544;2023-02-17T08:25:11;101422.88;;;11.63;100.00
14117;BME280;7137;51.436;6.544;2023-02-17T08:28:12;101432.94;;;11.80;99.71
14117;BME280;7137;51.436;6.544;2023-02-17T08:31:15;101436.56;;;11.74;100.00
14117;BME280;7137;51.436;6.544;2023-02-17T08:34:17;101429.72;;;11.69;100.00
14117;BME280;7137;51.436;6.544;2023-02-17T08:37:18;101419.28;;;12.03;98.93
14117;BME280;7137;51.436;6.544;2023-02-17T08:40:21;101425.59;;;11.94;98.30
14117;BME280;7137;51.436;6.544;2023-02-17T08:43:23;101421.09;;;12.01;97.08
14117;BME280;7137;51.436;6.544;2023-02-17T08:46:25;101422.56;;;12.11;97.26
14117;BME280;7137;51.436;6.544;2023-02-17T08:49:26;101422.75;;;12.03;98.41
14117;BME280;7137;51.436;6.544;2023-02-17T08:52:32;101432.28;;;12.06;97.02
14117;BME280;7137;51.436;6.544;2023-02-17T08:55:35;101431.78;;;12.24;97.93
14117;BME280;7137;51.436;6.544;2023-02-17T08:58:37;101425.91;;;12.16;95.94
14117;BME280;7137;51.436;6.544;2023-02-17T09:01:39;101427.34;;;12.28;97.13
14117;BME280;7137;51.436;6.544;2023-02-17T09:04:40;101438.09;;;12.49;95.12
14117;BME280;7137;51.436;6.544;2023-02-17T09:07:42;101428.28;;;12.58;95.44
14117;BME280;7137;51.436;6.544;2023-02-17T09:10:45;101437.56;;;12.37;96.39
14117;BME280;7137;51.436;6.544;2023-02-17T09:13:47;101437.41;;;12.43;94.22
14117;BME280;7137;51.436;6.544;2023-02-17T09:16:49;101436.47;;;12.45;94.66
14117;BME280;7137;51.436;6.544;2023-02-17T09:19:50;101436.75;;;12.67;94.08
14117;BME280;7137;51.436;6.544;2023-02-17T09:22:52;101443.13;;;12.88;93.82
14117;BME280;7137;51.436;6.544;2023-02-17T09:26:01;101440.41;;;12.91;93.24
14117;BME280;7137;51.436;6.544;2023-02-17T09:29:05;101455.97;;;12.66;92.46
14117;BME280;7137;51.436;6.544;2023-02-17T09:32:08;101454.03;;;12.73;94.77
14117;BME280;7137;51.436;6.544;2023-02-17T09:35:10;101457.28;;;12.83;94.19
14117;BME280;7137;51.436;6.544;2023-02-17T09:38:12;101444.66;;;12.95;92.30
14117;BME280;7137;51.436;6.544;2023-02-17T09:41:18;101449.22;;;12.89;93.29
14117;BME280;7137;51.436;6.544;2023-02-17T09:44:23;101454.50;;;12.87;93.85
14117;BME280;7137;51.436;6.544;2023-02-17T09:47:29;101466.34;;;13.00;92.11
14117;BME280;7137;51.436;6.544;2023-02-17T09:50:38;101478.09;;;13.18;91.24
14117;BME280;7137;51.436;6.544;2023-02-17T09:53:47;101472.84;;;13.18;92.01
14117;BME280;7137;51.436;6.544;2023-02-17T09:56:54;101479.28;;;13.38;91.24
14117;BME280;7137;51.436;6.544;2023-02-17T10:00:00;101470.88;;;13.26;90.70
14117;BME280;7137;51.436;6.544;2023-02-17T10:03:07;101480.69;;;13.48;89.00
14117;BME280;7137;51.436;6.544;2023-02-17T10:06:14;101476.53;;;13.69;88.88
14117;BME280;7137;51.436;6.544;2023-02-17T10:09:19;101482.63;;;13.97;88.18
14117;BME280;7137;51.436;6.544;2023-02-17T10:12:26;101479.88;;;14.00;88.07
14117;BME280;7137;51.436;6.544;2023-02-17T10:15:35;101484.09;;;13.78;88.18
14117;BME280;7137;51.436;6.544;2023-02-17T10:18:43;101498.47;;;13.68;87.87
14117;BME280;7137;51.436;6.544;2023-02-17T10:21:50;101505.44;;;13.95;87.21
14117;BME280;7137;51.436;6.544;2023-02-17T10:24:56;101502.94;;;13.64;88.38
14117;BME280;7137;51.436;6.544;2023-02-17T10:28:06;101512.56;;;13.35;89.01
14117;BME280;7137;51.436;6.544;2023-02-17T10:31:11;101493.88;;;13.46;89.55
14117;BME280;7137;51.436;6.544;2023-02-17T10:34:20;101487.16;;;13.65;88.33
14117;BME280;7137;51.436;6.544;2023-02-17T10:37:28;101483.06;;;13.83;88.21
14117;BME280;7137;51.436;6.544;2023-02-17T10:40:34;101476.00;;;13.85;87.43
14117;BME280;7137;51.436;6.544;2023-02-17T10:43:37;101464.81;;;14.05;86.78
14117;BME280;7137;51.436;6.544;2023-02-17T10:46:40;101477.66;;;14.14;85.66
14117;BME280;7137;51.436;6.544;2023-02-17T10:49:45;101481.28;;;14.37;85.67
14117;BME280;7137;51.436;6.544;2023-02-17T10:52:48;101490.63;;;14.45;83.97
14117;BME280;7137;51.436;6.544;2023-02-17T10:55:56;101487.00;;;14.48;84.79
14117;BME280;7137;51.436;6.544;2023-02-17T10:59:04;101487.81;;;14.25;85.20
14117;BME280;7137;51.436;6.544;2023-02-17T11:02:17;101476.69;;;14.17;85.83
14117;BME280;7137;51.436;6.544;2023-02-17T11:05:22;101468.69;;;14.20;84.77
14117;BME280;7137;51.436;6.544;2023-02-17T11:08:30;101462.28;;;14.02;85.50
14117;BME280;7137;51.436;6.544;2023-02-17T11:11:34;101460.22;;;14.12;84.97
14117;BME280;7137;51.436;6.544;2023-02-17T11:14:43;101453.75;;;14.47;85.40
14117;BME280;7137;51.436;6.544;2023-02-17T11:17:46;101457.97;;;14.52;83.68
14117;BME280;7137;51.436;6.544;2023-02-17T11:20:48;101458.47;;;14.62;81.54
14117;BME280;7137;51.436;6.544;2023-02-17T11:23:51;101461.91;;;14.64;81.92
14117;BME280;7137;51.436;6.544;2023-02-17T11:26:57;101476.97;;;14.84;80.73
14117;BME280;7137;51.436;6.544;2023-02-17T11:30:14;101465.63;;;15.05;80.88
14117;BME280;7137;51.436;6.544;2023-02-17T11:33:21;101457.09;;;15.22;80.12
14117;BME280;7137;51.436;6.544;2023-02-17T11:36:24;101473.91;;;15.18;80.18
14117;BME280;7137;51.436;6.544;2023-02-17T11:39:26;101474.28;;;15.09;80.02
14117;BME280;7137;51.436;6.544;2023-02-17T11:42:29;101463.56;;;14.90;79.97
14117;BME280;7137;51.436;6.544;2023-02-17T11:45:38;101457.69;;;14.83;81.00
14117;BME280;7137;51.436;6.544;2023-02-17T11:48:56;101460.53;;;14.77;80.48
14117;BME280;7137;51.436;6.544;2023-02-17T11:52:10;101443.44;;;14.66;81.13
14117;BME280;7137;51.436;6.544;2023-02-17T11:55:19;101435.19;;;14.75;81.48
14117;BME280;7137;51.436;6.544;2023-02-17T11:58:32;101425.09;;;14.88;81.37
14117;BME280;7137;51.436;6.544;2023-02-17T12:01:51;101422.88;;;15.44;79.81
14117;BME280;7137;51.436;6.544;2023-02-17T12:05:05;101422.56;;;15.52;77.96
14117;BME280;7137;51.436;6.544;2023-02-17T12:08:19;101420.19;;;15.67;76.20
14117;BME280;7137;51.436;6.544;2023-02-17T12:11:30;101418.00;;;16.19;75.12
14117;BME280;7137;51.436;6.544;2023-02-17T12:14:47;101431.34;;;16.55;73.96
14117;BME280;7137;51.436;6.544;2023-02-17T12:18:05;101428.09;;;16.69;72.94
14117;BME280;7137;51.436;6.544;2023-02-17T12:21:15;101437.88;;;16.67;71.98
14117;BME280;7137;51.436;6.544;2023-02-17T12:24:33;101444.38;;;16.79;72.05
14117;BME280;7137;51.436;6.544;2023-02-17T12:27:46;101450.03;;;17.09;71.50
14117;BME280;7137;51.436;6.544;2023-02-17T12:30:55;101443.38;;;16.22;74.88
14117;BME280;7137;51.436;6.544;2023-02-17T12:34:03;101435.91;;;15.91;74.80
14117;BME280;7137;51.436;6.544;2023-02-17T12:37:15;101430.72;;;16.10;75.89
14117;BME280;7137;51.436;6.544;2023-02-17T12:40:27;101415.09;;;16.05;76.02
14117;BME280;7137;51.436;6.544;2023-02-17T12:43:37;101413.56;;;15.79;75.01
14117;BME280;7137;51.436;6.544;2023-02-17T12:46:43;101413.50;;;15.81;75.33
14117;BME280;7137;51.436;6.544;2023-02-17T12:49:50;101418.50;;;15.87;77.41
14117;BME280;7137;51.436;6.544;2023-02-17T12:52:56;101430.03;;;16.04;74.16
14117;BME280;7137;51.436;6.544;2023-02-17T12:56:02;101442.66;;;15.76;75.86
14117;BME280;7137;51.436;6.544;2023-02-17T12:59:10;101440.94;;;15.53;78.46
14117;BME280;7137;51.436;6.544;2023-02-17T13:02:16;101435.44;;;15.59;78.01
14117;BME280;7137;51.436;6.544;2023-02-17T13:05:23;101437.81;;;15.43;79.25
14117;BME280;7137;51.436;6.544;2023-02-17T13:08:29;101441.84;;;15.08;80.33
14117;BME280;7137;51.436;6.544;2023-02-17T13:11:33;101453.22;;;15.09;79.46
14117;BME280;7137;51.436;6.544;2023-02-17T13:14:43;101440.34;;;15.01;80.21
14117;BME280;7137;51.436;6.544;2023-02-17T13:17:53;101435.19;;;15.22;79.72
14117;BME280;7137;51.436;6.544;2023-02-17T13:20:58;101437.94;;;15.40;80.09
14117;BME280;7137;51.436;6.544;2023-02-17T13:24:02;101447.13;;;15.30;78.71
14117;BME280;7137;51.436;6.544;2023-02-17T13:27:11;101442.97;;;15.25;78.88
14117;BME280;7137;51.436;6.544;2023-02-17T13:30:29;101433.78;;;15.35;79.93
14117;BME280;7137;51.436;6.544;2023-02-17T13:33:39;101442.09;;;15.46;78.38
14117;BME280;7137;51.436;6.544;2023-02-17T13:36:43;101452.97;;;15.60;79.43
14117;BME280;7137;51.436;6.544;2023-02-17T13:39:44;101466.34;;;15.54;78.57
14117;BME280;7137;51.436;6.544;2023-02-17T13:42:47;101472.09;;;15.20;79.24
14117;BME280;7137;51.436;6.544;2023-02-17T13:45:55;101479.94;;;14.98;79.21
14117;BME280;7137;51.436;6.544;2023-02-17T13:49:00;101494.09;;;15.18;78.69
14117;BME280;7137;51.436;6.544;2023-02-17T13:52:17;101501.91;;;14.97;79.21
14117;BME280;7137;51.436;6.544;2023-02-17T13:55:19;101499.59;;;14.88;79.65
14117;BME280;7137;51.436;6.544;2023-02-17T13:58:22;101513.91;;;14.81;81.32
14117;BME280;7137;51.436;6.544;2023-02-17T14:01:25;101501.00;;;14.50;82.39
14117;BME280;7137;51.436;6.544;2023-02-17T14:04:30;101521.31;;;14.45;82.85
14117;BME280;7137;51.436;6.544;2023-02-17T14:07:35;101518.16;;;14.34;82.70
14117;BME280;7137;51.436;6.544;2023-02-17T14:10:37;101515.69;;;14.29;83.46
14117;BME280;7137;51.436;6.544;2023-02-17T14:13:41;101523.94;;;14.45;83.09
14117;BME280;7137;51.436;6.544;2023-02-17T14:16:44;101525.56;;;14.22;83.90
14117;BME280;7137;51.436;6.544;2023-02-17T14:19:47;101529.56;;;14.08;83.95
14117;BME280;7137;51.436;6.544;2023-02-17T14:23:03;101532.63;;;13.94;84.87
14117;BME280;7137;51.436;6.544;2023-02-17T14:26:09;101538.91;;;13.88;85.08
14117;BME280;7137;51.436;6.544;2023-02-17T14:29:11;101548.53;;;13.89;84.88
14117;BME280;7137;51.436;6.544;2023-02-17T14:32:31;101567.97;;;13.84;84.61
14117;BME280;7137;51.436;6.544;2023-02-17T14:35:33;101566.47;;;13.75;85.46
14117;BME280;7137;51.436;6.544;2023-02-17T14:38:40;101561.44;;;13.69;85.16
14117;BME280;7137;51.436;6.544;2023-02-17T14:41:42;101575.50;;;13.66;85.98
14117;BME280;7137;51.436;6.544;2023-02-17T14:44:44;101555.47;;;13.62;86.30
14117;BME280;7137;51.436;6.544;2023-02-17T14:47:46;101570.28;;;13.65;86.10
14117;BME280;7137;51.436;6.544;2023-02-17T14:50:47;101558.53;;;13.49;87.26
14117;BME280;7137;51.436;6.544;2023-02-17T14:53:51;101564.13;;;13.38;89.80
14117;BME280;7137;51.436;6.544;2023-02-17T14:57:01;101572.09;;;13.33;90.04
14117;BME280;7137;51.436;6.544;2023-02-17T15:00:09;101556.59;;;13.26;89.93
14117;BME280;7137;51.436;6.544;2023-02-17T15:03:11;101562.88;;;13.20;90.87
14117;BME280;7137;51.436;6.544;2023-02-17T15:06:15;101570.69;;;13.22;92.92
14117;BME280;7137;51.436;6.544;2023-02-17T15:09:29;101555.75;;;13.25;92.09
14117;BME280;7137;51.436;6.544;2023-02-17T15:12:32;101578.31;;;12.98;94.59
14117;BME280;7137;51.436;6.544;2023-02-17T15:15:34;101578.28;;;13.00;95.82
14117;BME280;7137;51.436;6.544;2023-02-17T15:18:38;101571.31;;;12.99;95.56
14117;BME280;7137;51.436;6.544;2023-02-17T15:21:43;101576.50;;;13.00;94.24
14117;BME280;7137;51.436;6.544;2023-02-17T15:24:47;101580.50;;;12.83;97.26
14117;BME280;7137;51.436;6.544;2023-02-17T15:27:49;101579.94;;;12.71;96.70
14117;BME280;7137;51.436;6.544;2023-02-17T15:30:52;101587.88;;;12.68;95.89
14117;BME280;7137;51.436;6.544;2023-02-17T15:33:57;101590.94;;;12.84;96.54
14117;BME280;7137;51.436;6.544;2023-02-17T15:36:59;101588.00;;;12.96;95.12
14117;BME280;7137;51.436;6.544;2023-02-17T15:40:03;101594.41;;;13.17;94.03
14117;BME280;7137;51.436;6.544;2023-02-17T15:43:05;101591.63;;;12.91;93.08
14117;BME280;7137;51.436;6.544;2023-02-17T15:46:12;101604.66;;;12.95;92.22
14117;BME280;7137;51.436;6.544;2023-02-17T15:49:14;101595.50;;;13.08;91.07
14117;BME280;7137;51.436;6.544;2023-02-17T15:52:46;101601.50;;;13.14;90.85
14117;BME280;7137;51.436;6.544;2023-02-17T15:55:50;101604.69;;;13.26;90.34
14117;BME280;7137;51.436;6.544;2023-02-17T15:58:53;101601.72;;;13.39;88.83
14117;BME280;7137;51.436;6.544;2023-02-17T16:01:55;101596.00;;;13.24;89.16
14117;BME280;7137;51.436;6.544;2023-02-17T16:05:00;101589.66;;;13.31;89.02
14117;BME280;7137;51.436;6.544;2023-02-17T16:08:01;101597.00;;;13.19;90.34
14117;BME280;7137;51.436;6.544;2023-02-17T16:11:08;101608.88;;;13.32;89.47
14117;BME280;7137;51.436;6.544;2023-02-17T16:14:18;101616.09;;;13.25;89.82
14117;BME280;7137;51.436;6.544;2023-02-17T16:17:23;101618.56;;;13.30;89.79
14117;BME280;7137;51.436;6.544;2023-02-17T16:24:22;101632.75;;;13.23;89.40